Time;durP1;ratioP1;P1;durP2;ratioP2;P2;SDS_P1;SDS_P2;PMS_P1;PMS_P2;Temp;Humidity;BMP_temperature;BMP_pressure;BME280_temperature;BME280_humidity;BME280_pressure;Samples;Min_cycle;Max_cycle;Signal;HPM_P1;HPM_P2
2021/01/21 05:45:22;;;;;;;2.53;1.10;;;;;;;;;;6190374;22;884411;-84
2021/01/21 05:47:58;;;;;;;2.35;1.42;;;;;;;;;;6191981;23;20020;-83
2021/01/21 05:50:24;;;;;;;4.30;1.50;;;;;;;;;;6190809;23;20013;-83
2021/01/21 05:52:51;;;;;;;4.03;1.30;;;;;;;;;;6192307;23;20012;-83
2021/01/21 05:55:18;;;;;;;3.90;1.00;;;;;;;;;;6190414;23;20000;-83
2021/01/21 05:57:44;;;;;;;2.50;1.23;;;;;;;;;;6192655;23;20005;-83
2021/01/21 06:00:10;;;;;;;3.75;1.25;;;;;;;;;;6193399;23;20001;-82
2021/01/21 06:02:36;;;;;;;3.15;1.33;;;;;;;;;;6197073;23;20000;-82
2021/01/21 06:05:03;;;;;;;3.03;1.20;;;;;;;;;;6194271;23;20005;-82
2021/01/21 06:07:32;;;;;;;3.60;1.60;;;;;;;;;;6196877;23;20011;-82
2021/01/21 06:09:58;;;;;;;5.20;1.33;;;;;;;;;;6197246;23;20371;-82
2021/01/21 06:12:28;;;;;;;3.42;1.15;;;;;;;;;;6194563;23;20005;-83
2021/01/21 06:17:11;;;;;;;3.42;1.10;;;;;;;;;;5083937;28;25106;-82
2021/01/21 06:19:37;;;;;;;3.72;1.77;;;;;;;;;;5071072;28;20028;-81
2021/01/21 06:22:09;;;;;;;3.47;1.58;;;;;;;;;;5068023;28;20761;-81
2021/01/21 06:24:46;;;;;;;4.07;1.70;;;;;;;;;;5062898;28;20037;-82
2021/01/21 06:27:14;;;;;;;5.60;1.30;;;;;;;;;;5057633;28;20826;-82
2021/01/21 06:29:40;;;;;;;4.82;1.33;;;;;;;;;;5066511;28;20043;-82
2021/01/21 06:34:25;;;;;;;3.38;1.40;;;;;;;;;;5101667;27;20482;-82
2021/01/21 06:36:53;;;;;;;3.58;1.75;;;;;;;;;;5094903;28;20032;-82
2021/01/21 06:39:21;;;;;;;6.13;1.85;;;;;;;;;;5094921;28;20507;-82
2021/01/21 06:41:49;;;;;;;3.63;1.33;;;;;;;;;;5094531;28;20073;-81
2021/01/21 06:44:16;;;;;;;2.83;1.38;;;;;;;;;;5093682;28;20021;-82
2021/01/21 06:46:43;;;;;;;2.63;1.20;;;;;;;;;;5097906;28;20044;-83
2021/01/21 06:49:08;;;;;;;4.63;2.38;;;;;;;;;;5098620;28;20051;-83
2021/01/21 06:51:34;;;;;;;3.80;2.05;;;;;;;;;;5103781;28;20368;-83
2021/01/21 06:54:00;;;;;;;4.53;2.90;;;;;;;;;;5097263;28;20104;-84
2021/01/21 06:56:32;;;;;;;4.38;2.35;;;;;;;;;;5100568;28;21574;-83
2021/01/21 06:58:58;;;;;;;3.70;1.50;;;;;;;;;;5096895;28;20028;-83
2021/01/21 07:01:29;;;;;;;3.15;1.50;;;;;;;;;;5100595;28;20024;-83
2021/01/21 07:03:55;;;;;;;;;;;;;;;;;;5095445;28;20056;-83
2021/01/21 07:06:20;;;;;;;6.55;1.90;;;;;;;;;;5092221;28;19913;-83
2021/01/21 07:11:05;;;;;;;4.65;1.73;;;;;;;;;;5094421;27;20405;-86
2021/01/21 07:13:31;;;;;;;3.28;2.10;;;;;;;;;;5088689;28;20082;-84
2021/01/21 07:16:06;;;;;;;2.97;1.52;;;;;;;;;;5097276;28;20541;-83
2021/01/21 07:18:35;;;;;;;3.72;1.95;;;;;;;;;;5088355;28;20471;-83
2021/01/21 07:21:07;;;;;;;3.08;1.88;;;;;;;;;;5093825;28;20526;-83
2021/01/21 07:23:32;;;;;;;;;;;;;;;;;;5092432;28;20085;-83
2021/01/21 07:26:16;;;;;;;2.78;1.13;;;;;;;;;;5093310;28;19920;-83
2021/01/21 07:29:01;;;;;;;2.60;1.40;;;;;;;;;;5090352;28;20707;-83
2021/01/21 07:31:26;;;;;;;3.38;1.35;;;;;;;;;;5084868;28;20058;-83
2021/01/21 07:34:11;;;;;;;2.78;1.10;;;;;;;;;;5090722;28;20012;-83
2021/01/21 07:36:36;;;;;;;3.30;1.50;;;;;;;;;;5088437;28;20040;-83
2021/01/21 07:39:02;;;;;;;3.38;1.35;;;;;;;;;;5089435;28;20024;-83
2021/01/21 07:41:43;;;;;;;4.00;1.30;;;;;;;;;;5085795;28;20040;-82
2021/01/21 07:44:09;;;;;;;2.85;1.30;;;;;;;;;;5084018;28;20441;-83
2021/01/21 07:46:35;;;;;;;2.67;1.40;;;;;;;;;;5093001;28;20059;-83
2021/01/21 07:49:20;;;;;;;2.50;1.27;;;;;;;;;;5094376;28;20016;-83
2021/01/21 07:51:58;;;;;;;3.90;1.75;;;;;;;;;;5091379;28;20024;-82
2021/01/21 07:54:24;;;;;;;3.63;1.80;;;;;;;;;;5091362;28;20046;-83
2021/01/21 07:56:51;;;;;;;4.85;2.90;;;;;;;;;;5084590;28;20056;-84
2021/01/21 07:59:16;;;;;;;3.65;1.60;;;;;;;;;;5085997;28;20024;-82
2021/01/21 08:01:58;;;;;;;9.70;5.95;;;;;;;;;;5089188;28;20108;-83
2021/01/21 08:04:24;;;;;;;;;;;;;;;;;;5084244;28;20027;-83
2021/01/21 08:06:59;;;;;;;15.27;11.63;;;;;;;;;;5089066;28;19916;-83
2021/01/21 08:09:25;;;;;;;9.55;6.13;;;;;;;;;;5087464;28;20028;-83
2021/01/21 08:11:52;;;;;;;9.52;6.00;;;;;;;;;;5094636;28;20030;-83
2021/01/21 08:14:18;;;;;;;10.93;6.75;;;;;;;;;;5087008;28;20086;-82
2021/01/21 08:16:44;;;;;;;5.00;2.25;;;;;;;;;;5083384;28;20032;-82
2021/01/21 08:19:11;;;;;;;35.03;20.33;;;;;;;;;;5086722;28;20026;-82
2021/01/21 08:21:37;;;;;;;4.38;1.65;;;;;;;;;;5087273;28;20016;-83
2021/01/21 08:24:03;;;;;;;25.83;11.98;;;;;;;;;;5084605;28;20028;-81
2021/01/21 08:26:30;;;;;;;96.75;44.38;;;;;;;;;;5090289;28;20012;-80
2021/01/21 08:28:56;;;;;;;36.65;17.42;;;;;;;;;;5075792;28;20028;-82
2021/01/21 08:31:30;;;;;;;44.35;18.80;;;;;;;;;;5077112;28;20024;-83
2021/01/21 08:33:56;;;;;;;11.63;3.95;;;;;;;;;;5070848;28;20422;-83
2021/01/21 08:36:24;;;;;;;5.50;2.40;;;;;;;;;;5076069;28;20078;-83
2021/01/21 08:38:50;;;;;;;34.63;16.27;;;;;;;;;;5075195;28;20020;-84
2021/01/21 08:41:16;;;;;;;15.40;7.60;;;;;;;;;;5081584;28;20039;-82
2021/01/21 08:43:42;;;;;;;6.85;3.50;;;;;;;;;;5088137;28;20028;-82
2021/01/21 08:46:18;;;;;;;9.05;5.40;;;;;;;;;;5088973;28;20096;-83
2021/01/21 08:48:44;;;;;;;6.20;4.13;;;;;;;;;;5073153;28;20033;-83
2021/01/21 08:51:26;;;;;;;4.93;2.78;;;;;;;;;;5068603;28;20473;-83
2021/01/21 08:53:52;;;;;;;7.32;4.03;;;;;;;;;;5073947;28;20102;-83
2021/01/21 08:56:18;;;;;;;4.18;1.98;;;;;;;;;;5075779;28;20135;-84
2021/01/21 08:58:44;;;;;;;7.00;1.60;;;;;;;;;;5082965;28;20031;-83
2021/01/21 09:01:10;;;;;;;4.68;1.67;;;;;;;;;;5072975;28;20070;-83
2021/01/21 09:03:38;;;;;;;3.92;1.95;;;;;;;;;;5082920;28;20059;-83
2021/01/21 09:06:08;;;;;;;3.97;1.83;;;;;;;;;;5072887;28;20036;-83
2021/01/21 09:08:46;;;;;;;3.55;1.98;;;;;;;;;;5076685;28;20028;-83
2021/01/21 09:11:32;;;;;;;6.15;3.33;;;;;;;;;;5075442;28;20024;-84
2021/01/21 09:13:58;;;;;;;3.28;1.67;;;;;;;;;;5078729;28;20024;-84
2021/01/21 09:16:43;;;;;;;5.90;1.85;;;;;;;;;;5079521;28;20036;-83
2021/01/21 09:19:10;;;;;;;4.72;2.42;;;;;;;;;;5077362;28;20013;-83
2021/01/21 09:21:35;;;;;;;4.75;2.58;;;;;;;;;;5076795;28;20073;-83
2021/01/21 09:24:05;;;;;;;6.90;4.57;;;;;;;;;;5074018;28;20024;-82
2021/01/21 09:26:31;;;;;;;5.85;3.20;;;;;;;;;;5074259;28;20024;-83
2021/01/21 09:31:17;;;;;;;5.50;3.47;;;;;;;;;;5107886;27;20658;-82
2021/01/21 09:33:42;;;;;;;6.00;2.70;;;;;;;;;;5093807;28;20423;-82
2021/01/21 09:36:10;;;;;;;5.63;2.80;;;;;;;;;;5096273;28;20032;-82
2021/01/21 09:38:35;;;;;;;6.85;3.90;;;;;;;;;;5086895;28;20030;-84
2021/01/21 09:43:20;;;;;;;9.63;4.30;;;;;;;;;;5108190;27;20352;-81
2021/01/21 09:45:46;;;;;;;11.32;5.00;;;;;;;;;;5090868;28;20039;-82
2021/01/21 09:48:11;;;;;;;8.93;5.03;;;;;;;;;;5087900;28;20022;-82
2021/01/21 09:50:37;;;;;;;8.85;4.97;;;;;;;;;;5089837;28;20062;-81
2021/01/21 09:53:03;;;;;;;9.00;5.65;;;;;;;;;;5087480;28;20119;-81
2021/01/21 09:55:29;;;;;;;8.10;4.40;;;;;;;;;;5086978;28;20035;-81
2021/01/21 09:57:54;;;;;;;8.60;4.97;;;;;;;;;;5088702;28;20020;-82
2021/01/21 10:00:20;;;;;;;9.73;3.90;;;;;;;;;;5080468;28;20380;-81
2021/01/21 10:02:46;;;;;;;8.05;3.05;;;;;;;;;;5091302;28;20027;-84
2021/01/21 10:05:13;;;;;;;5.40;3.05;;;;;;;;;;5094138;28;20103;-82
2021/01/21 10:07:38;;;;;;;6.28;3.00;;;;;;;;;;5093458;28;20480;-83
2021/01/21 10:10:05;;;;;;;7.38;3.42;;;;;;;;;;5094217;28;20028;-83
2021/01/21 10:12:31;;;;;;;5.38;2.65;;;;;;;;;;5085718;28;20075;-81
2021/01/21 10:14:58;;;;;;;6.00;3.65;;;;;;;;;;5089579;28;20468;-82
2021/01/21 10:17:24;;;;;;;11.80;3.33;;;;;;;;;;5091531;28;20040;-82
2021/01/21 10:19:49;;;;;;;6.60;3.42;;;;;;;;;;5094760;28;20035;-82
2021/01/21 10:22:15;;;;;;;6.25;3.38;;;;;;;;;;5094632;28;20108;-81
2021/01/21 10:24:44;;;;;;;5.50;2.10;;;;;;;;;;5090734;28;20047;-82
2021/01/21 10:27:10;;;;;;;3.97;2.00;;;;;;;;;;5088150;28;20480;-82
2021/01/21 10:29:35;;;;;;;6.35;2.90;;;;;;;;;;5081894;28;20025;-85
2021/01/21 10:32:01;;;;;;;8.27;3.08;;;;;;;;;;5087341;28;20058;-81
2021/01/21 10:34:27;;;;;;;5.75;2.60;;;;;;;;;;5090686;28;20068;-82
2021/01/21 10:36:52;;;;;;;4.95;2.17;;;;;;;;;;5082607;28;20519;-80
2021/01/21 10:39:18;;;;;;;3.28;1.13;;;;;;;;;;5092192;28;20495;-81
2021/01/21 10:41:44;;;;;;;2.10;0.82;;;;;;;;;;5093466;28;20024;-81
2021/01/21 10:44:09;;;;;;;4.65;1.58;;;;;;;;;;5092901;28;20027;-81
2021/01/21 10:46:35;;;;;;;2.72;1.40;;;;;;;;;;5098644;28;20100;-81
2021/01/21 10:49:01;;;;;;;2.42;1.10;;;;;;;;;;5085922;28;20021;-81
2021/01/21 10:51:27;;;;;;;5.47;1.65;;;;;;;;;;5091052;28;20085;-82
2021/01/21 10:53:52;;;;;;;8.23;3.80;;;;;;;;;;5085132;28;20027;-82
2021/01/21 10:56:18;;;;;;;5.15;1.80;;;;;;;;;;5073953;28;20400;-83
2021/01/21 10:58:44;;;;;;;6.43;1.65;;;;;;;;;;5074798;28;20388;-82
2021/01/21 11:01:10;;;;;;;3.03;1.23;;;;;;;;;;5068136;28;20028;-83
2021/01/21 11:03:36;;;;;;;1.98;0.90;;;;;;;;;;5074520;28;20065;-83
2021/01/21 11:06:05;;;;;;;2.40;1.10;;;;;;;;;;5070312;28;20074;-82
2021/01/21 11:08:30;;;;;;;2.22;0.90;;;;;;;;;;5073851;28;20120;-83
2021/01/21 11:10:56;;;;;;;3.90;1.08;;;;;;;;;;5071196;28;20040;-83
2021/01/21 11:13:22;;;;;;;3.80;2.22;;;;;;;;;;5071120;28;20028;-83
2021/01/21 11:15:48;;;;;;;3.28;1.65;;;;;;;;;;5070206;28;20075;-83
2021/01/21 11:18:14;;;;;;;3.25;1.48;;;;;;;;;;5067919;28;20094;-83
2021/01/21 11:20:40;;;;;;;6.55;2.75;;;;;;;;;;5067649;28;20036;-83
2021/01/21 11:23:06;;;;;;;6.75;2.70;;;;;;;;;;5071471;28;20029;-82
2021/01/21 11:25:31;;;;;;;7.70;3.63;;;;;;;;;;5072210;28;20459;-82
2021/01/21 11:27:57;;;;;;;3.88;1.05;;;;;;;;;;5075387;28;20472;-83
2021/01/21 11:30:23;;;;;;;4.03;1.73;;;;;;;;;;5079218;28;20033;-83
2021/01/21 11:32:49;;;;;;;3.53;1.88;;;;;;;;;;5080391;28;20033;-84
2021/01/21 11:35:15;;;;;;;2.20;0.80;;;;;;;;;;5073527;28;20620;-83
2021/01/21 11:37:40;;;;;;;3.30;1.52;;;;;;;;;;5075245;28;20028;-83
2021/01/21 11:40:07;;;;;;;3.72;1.10;;;;;;;;;;5072339;28;20076;-82
2021/01/21 11:42:33;;;;;;;5.15;1.50;;;;;;;;;;5075858;28;20480;-82
2021/01/21 11:45:01;;;;;;;5.82;1.65;;;;;;;;;;5074063;28;20035;-82
2021/01/21 11:47:27;;;;;;;3.15;1.10;;;;;;;;;;5083726;28;20043;-82
2021/01/21 11:49:52;;;;;;;7.68;2.08;;;;;;;;;;5072437;28;20527;-81
2021/01/21 11:52:18;;;;;;;3.25;1.50;;;;;;;;;;5087565;28;20036;-83
2021/01/21 11:54:44;;;;;;;2.80;1.00;;;;;;;;;;5070439;28;20108;-82
2021/01/21 11:57:09;;;;;;;6.53;1.08;;;;;;;;;;5074539;28;20063;-83
2021/01/21 11:59:35;;;;;;;2.67;1.02;;;;;;;;;;5080851;28;20030;-82
2021/01/21 12:04:35;;;;;;;5.50;2.15;;;;;;;;;;5053099;28;20041;-83
2021/01/21 12:07:02;;;;;;;5.75;2.10;;;;;;;;;;5050734;28;20079;-83
2021/01/21 12:09:28;;;;;;;4.00;1.52;;;;;;;;;;5053807;28;20099;-83
2021/01/21 12:11:53;;;;;;;6.15;2.20;;;;;;;;;;5041286;28;20029;-83
2021/01/21 12:14:19;;;;;;;6.35;1.73;;;;;;;;;;5048110;28;20044;-83
2021/01/21 12:16:45;;;;;;;7.80;2.75;;;;;;;;;;5044719;28;20036;-83
2021/01/21 12:19:10;;;;;;;4.93;1.92;;;;;;;;;;5029760;28;20127;-83
2021/01/21 12:21:36;;;;;;;5.63;1.90;;;;;;;;;;5048474;28;20060;-83
2021/01/21 12:24:02;;;;;;;3.95;2.00;;;;;;;;;;5035593;28;20763;-83
2021/01/21 12:26:28;;;;;;;5.65;1.75;;;;;;;;;;5043002;28;20021;-83
2021/01/21 12:28:54;;;;;;;5.82;1.50;;;;;;;;;;5030356;28;20020;-86
2021/01/21 12:31:20;;;;;;;2.95;0.95;;;;;;;;;;5042420;28;20021;-84
2021/01/21 12:33:45;;;;;;;3.35;1.27;;;;;;;;;;5044116;28;20540;-83
2021/01/21 12:36:11;;;;;;;6.28;1.10;;;;;;;;;;5028592;28;20431;-84
2021/01/21 12:38:37;;;;;;;3.97;1.48;;;;;;;;;;5022382;28;20111;-83
2021/01/21 12:41:02;;;;;;;3.90;1.40;;;;;;;;;;5047868;28;20075;-83
2021/01/21 12:43:28;;;;;;;8.63;1.67;;;;;;;;;;5048827;28;20123;-83
2021/01/21 12:45:54;;;;;;;6.13;1.27;;;;;;;;;;5055523;28;20029;-83
2021/01/21 12:48:20;;;;;;;9.48;1.98;;;;;;;;;;5030213;28;20048;-85
2021/01/21 12:50:46;;;;;;;5.65;2.10;;;;;;;;;;5044345;28;20025;-83
2021/01/21 12:53:12;;;;;;;3.95;1.13;;;;;;;;;;5050288;28;20029;-84
2021/01/21 12:57:56;;;;;;;5.90;1.13;;;;;;;;;;5125814;27;20354;-84
2021/01/21 13:00:22;;;;;;;3.15;0.90;;;;;;;;;;5114009;28;20031;-85
2021/01/21 13:02:48;;;;;;;4.35;1.20;;;;;;;;;;5112266;28;20032;-85
2021/01/21 13:05:14;;;;;;;5.50;1.10;;;;;;;;;;5103159;27;20427;-84
2021/01/21 13:07:40;;;;;;;4.78;1.08;;;;;;;;;;5111511;28;20110;-85
2021/01/21 13:10:06;;;;;;;4.28;1.00;;;;;;;;;;5106900;28;20102;-85
2021/01/21 13:12:31;;;;;;;4.72;1.48;;;;;;;;;;5098890;28;20035;-85
2021/01/21 13:14:57;;;;;;;5.70;1.60;;;;;;;;;;5101890;28;20464;-85
2021/01/21 13:17:23;;;;;;;6.03;2.72;;;;;;;;;;5097521;28;20027;-85
2021/01/21 13:19:48;;;;;;;3.85;1.73;;;;;;;;;;5102678;28;20490;-84
2021/01/21 13:22:14;;;;;;;7.75;3.38;;;;;;;;;;5101233;28;20054;-85
2021/01/21 13:24:39;;;;;;;6.68;1.70;;;;;;;;;;5107729;28;20015;-85
2021/01/21 13:27:05;;;;;;;5.60;1.48;;;;;;;;;;5106965;27;20463;-85
2021/01/21 13:29:31;;;;;;;6.82;2.08;;;;;;;;;;5102589;28;20414;-85
2021/01/21 13:31:56;;;;;;;6.15;1.90;;;;;;;;;;5106808;28;20046;-85
2021/01/21 13:34:22;;;;;;;7.90;2.15;;;;;;;;;;5108909;28;20027;-84
2021/01/21 13:36:48;;;;;;;5.90;1.55;;;;;;;;;;5099215;28;20050;-85
2021/01/21 13:39:15;;;;;;;6.80;1.95;;;;;;;;;;5111614;28;20028;-85
2021/01/21 13:41:42;;;;;;;9.38;5.68;;;;;;;;;;5110144;28;20119;-85
2021/01/21 13:44:07;;;;;;;6.38;2.00;;;;;;;;;;5106451;27;20559;-85
2021/01/21 13:48:52;;;;;;;7.35;1.52;;;;;;;;;;5089854;28;20360;-84
2021/01/21 13:51:18;;;;;;;4.45;1.70;;;;;;;;;;5078772;28;20096;-84
2021/01/21 13:53:44;;;;;;;5.57;1.60;;;;;;;;;;5072578;28;20120;-84
2021/01/21 13:56:09;;;;;;;4.32;1.73;;;;;;;;;;5081297;28;20050;-86
2021/01/21 13:58:35;;;;;;;5.05;1.48;;;;;;;;;;5072073;28;20032;-85
2021/01/21 14:01:00;;;;;;;10.88;3.10;;;;;;;;;;5079306;28;20496;-84
2021/01/21 14:03:26;;;;;;;3.95;1.27;;;;;;;;;;5076956;28;20460;-84
2021/01/21 14:05:52;;;;;;;3.92;1.90;;;;;;;;;;5078630;28;20070;-85
2021/01/21 14:08:18;;;;;;;4.03;1.80;;;;;;;;;;5080211;28;20025;-85
2021/01/21 14:10:45;;;;;;;6.35;2.60;;;;;;;;;;5073035;28;20708;-85
2021/01/21 14:13:11;;;;;;;14.23;2.97;;;;;;;;;;5072610;28;20063;-83
2021/01/21 14:15:37;;;;;;;8.45;2.65;;;;;;;;;;5072075;28;20389;-85
2021/01/21 14:18:03;;;;;;;9.88;3.58;;;;;;;;;;5071364;28;20040;-84
2021/01/21 14:20:28;;;;;;;6.47;2.67;;;;;;;;;;5078366;28;20044;-84
2021/01/21 14:22:54;;;;;;;3.10;1.10;;;;;;;;;;5071022;28;20035;-86
2021/01/21 14:25:20;;;;;;;3.55;1.33;;;;;;;;;;5070791;28;20627;-85
2021/01/21 14:27:45;;;;;;;11.27;1.50;;;;;;;;;;5068694;28;20020;-84
2021/01/21 14:30:11;;;;;;;5.40;1.58;;;;;;;;;;5063100;28;20102;-85
2021/01/21 14:32:37;;;;;;;4.90;1.60;;;;;;;;;;5065950;28;20523;-85
2021/01/21 14:35:03;;;;;;;5.93;1.73;;;;;;;;;;5075166;28;20116;-85
2021/01/21 14:37:28;;;;;;;4.82;1.70;;;;;;;;;;5073161;28;20020;-84
2021/01/21 14:39:54;;;;;;;5.22;1.50;;;;;;;;;;5071100;28;20364;-85
2021/01/21 14:42:21;;;;;;;4.60;1.40;;;;;;;;;;5071432;28;20111;-84
2021/01/21 14:44:47;;;;;;;4.38;1.30;;;;;;;;;;5077244;28;20083;-85
2021/01/21 14:47:12;;;;;;;2.50;1.00;;;;;;;;;;5077690;28;20028;-82
2021/01/21 14:49:38;;;;;;;4.07;1.15;;;;;;;;;;5069580;28;20053;-83
2021/01/21 14:52:04;;;;;;;5.72;2.15;;;;;;;;;;5074890;28;20021;-82
2021/01/21 14:54:31;;;;;;;3.53;1.10;;;;;;;;;;5078832;28;20099;-82
2021/01/21 14:56:56;;;;;;;3.13;1.25;;;;;;;;;;5079440;28;20040;-83
2021/01/21 14:59:22;;;;;;;3.85;0.90;;;;;;;;;;5071843;28;20013;-83
2021/01/21 15:01:48;;;;;;;4.25;1.02;;;;;;;;;;5061720;28;20080;-82
2021/01/21 15:04:13;;;;;;;2.88;0.95;;;;;;;;;;5069147;28;20017;-82
2021/01/21 15:06:39;;;;;;;6.43;1.50;;;;;;;;;;5067608;28;20031;-82
2021/01/21 15:09:05;;;;;;;5.95;1.80;;;;;;;;;;5068529;28;20024;-82
2021/01/21 15:11:30;;;;;;;3.42;1.30;;;;;;;;;;5068856;28;20025;-82
2021/01/21 15:13:56;;;;;;;25.52;13.43;;;;;;;;;;5069811;28;20044;-82
2021/01/21 15:16:22;;;;;;;15.63;10.65;;;;;;;;;;5067139;28;20031;-83
2021/01/21 15:18:48;;;;;;;10.55;5.38;;;;;;;;;;5060476;28;20087;-83
2021/01/21 15:21:14;;;;;;;7.90;4.65;;;;;;;;;;5068181;28;20021;-83
2021/01/21 15:23:39;;;;;;;4.25;2.28;;;;;;;;;;5061774;28;20091;-83
2021/01/21 15:26:06;;;;;;;6.20;2.90;;;;;;;;;;5066303;28;20079;-83
2021/01/21 15:28:32;;;;;;;5.50;2.70;;;;;;;;;;5062934;28;20504;-83
2021/01/21 15:30:57;;;;;;;5.28;2.65;;;;;;;;;;5066834;28;20024;-82
2021/01/21 15:33:23;;;;;;;5.22;2.58;;;;;;;;;;5065389;28;20017;-82
2021/01/21 15:35:49;;;;;;;13.98;9.35;;;;;;;;;;5063977;28;20113;-83
2021/01/21 15:38:16;;;;;;;32.90;17.95;;;;;;;;;;5065268;28;20073;-82
2021/01/21 15:40:42;;;;;;;19.52;12.02;;;;;;;;;;5066046;28;20024;-83
2021/01/21 15:43:09;;;;;;;18.42;9.88;;;;;;;;;;5061651;28;20097;-83
2021/01/21 15:45:35;;;;;;;9.35;5.80;;;;;;;;;;5057877;28;20029;-83
2021/01/21 15:48:00;;;;;;;8.20;3.47;;;;;;;;;;5068019;28;20017;-83
2021/01/21 15:50:27;;;;;;;5.80;2.22;;;;;;;;;;5069154;28;20076;-83
2021/01/21 15:52:53;;;;;;;4.57;2.30;;;;;;;;;;5068131;28;20396;-83
2021/01/21 15:55:18;;;;;;;3.97;1.35;;;;;;;;;;5069493;28;20048;-83
2021/01/21 15:57:44;;;;;;;6.75;1.23;;;;;;;;;;5063509;28;20079;-82
2021/01/21 16:00:10;;;;;;;3.35;1.15;;;;;;;;;;5061428;28;20029;-82
2021/01/21 16:02:35;;;;;;;3.63;0.90;;;;;;;;;;5060473;28;20017;-82
2021/01/21 16:05:01;;;;;;;2.22;0.75;;;;;;;;;;5060602;28;20116;-82
2021/01/21 16:07:27;;;;;;;5.55;1.10;;;;;;;;;;5066528;28;20127;-82
2021/01/21 16:09:53;;;;;;;3.03;1.45;;;;;;;;;;5062250;28;20047;-82
2021/01/21 16:12:18;;;;;;;3.38;1.58;;;;;;;;;;5057817;28;20024;-82
2021/01/21 16:14:44;;;;;;;5.03;2.25;;;;;;;;;;5058961;28;20048;-82
2021/01/21 16:17:10;;;;;;;6.35;2.53;;;;;;;;;;5064115;28;20025;-81
2021/01/21 16:19:35;;;;;;;9.60;5.20;;;;;;;;;;5061432;28;20048;-82
2021/01/21 16:22:01;;;;;;;5.13;1.80;;;;;;;;;;5063686;28;20120;-82
2021/01/21 16:24:30;;;;;;;6.00;2.20;;;;;;;;;;5057296;28;20048;-82
2021/01/21 16:26:55;;;;;;;6.68;3.08;;;;;;;;;;5059304;28;20025;-82
2021/01/21 16:29:21;;;;;;;3.95;2.15;;;;;;;;;;5064186;28;20057;-82
2021/01/21 16:31:47;;;;;;;4.07;2.15;;;;;;;;;;5067895;28;20041;-82
2021/01/21 16:34:13;;;;;;;4.22;2.13;;;;;;;;;;5051753;28;20075;-82
2021/01/21 16:36:39;;;;;;;4.55;2.38;;;;;;;;;;5065332;28;20094;-82
2021/01/21 16:39:05;;;;;;;5.07;2.75;;;;;;;;;;5058063;28;20025;-82
2021/01/21 16:41:34;;;;;;;10.60;6.90;;;;;;;;;;5060535;28;20032;-82
2021/01/21 16:44:00;;;;;;;13.27;7.72;;;;;;;;;;5063015;28;20040;-82
2021/01/21 16:46:26;;;;;;;4.72;2.33;;;;;;;;;;5059345;28;20048;-82
2021/01/21 16:48:51;;;;;;;5.90;2.05;;;;;;;;;;5063099;28;20045;-82
2021/01/21 16:51:17;;;;;;;5.88;3.20;;;;;;;;;;5061369;28;20029;-82
2021/01/21 16:53:43;;;;;;;4.57;1.80;;;;;;;;;;5066822;28;20092;-82
2021/01/21 16:56:08;;;;;;;3.13;1.83;;;;;;;;;;5056755;28;20100;-82
2021/01/21 16:58:34;;;;;;;3.20;1.40;;;;;;;;;;5056547;28;20120;-83
2021/01/21 17:01:00;;;;;;;3.53;1.45;;;;;;;;;;5058789;28;20068;-82
2021/01/21 17:03:26;;;;;;;3.13;1.60;;;;;;;;;;5066648;28;20547;-82
2021/01/21 17:05:52;;;;;;;2.70;1.58;;;;;;;;;;5055261;28;20115;-83
2021/01/21 17:08:17;;;;;;;2.78;1.20;;;;;;;;;;5060396;28;20017;-82
2021/01/21 17:10:43;;;;;;;3.03;1.55;;;;;;;;;;5059118;28;20123;-82
2021/01/21 17:13:09;;;;;;;6.93;3.80;;;;;;;;;;5062104;28;20108;-81
2021/01/21 17:15:35;;;;;;;9.32;5.15;;;;;;;;;;5054317;28;20435;-83
2021/01/21 17:18:01;;;;;;;12.70;5.93;;;;;;;;;;5051861;28;20116;-82
2021/01/21 17:20:27;;;;;;;10.05;5.70;;;;;;;;;;5057070;28;20043;-82
2021/01/21 17:22:52;;;;;;;7.85;4.05;;;;;;;;;;5059937;28;20056;-83
2021/01/21 17:25:18;;;;;;;6.38;2.80;;;;;;;;;;5058576;28;20029;-83
2021/01/21 17:27:44;;;;;;;5.47;2.25;;;;;;;;;;5056514;28;20047;-83
2021/01/21 17:30:10;;;;;;;3.80;2.60;;;;;;;;;;5060602;28;20043;-81
2021/01/21 17:34:54;;;;;;;4.20;2.25;;;;;;;;;;5083492;27;20370;-84
2021/01/21 17:39:38;;;;;;;11.07;9.15;;;;;;;;;;5089612;28;20355;-83
2021/01/21 17:42:04;;;;;;;6.68;5.03;;;;;;;;;;5074492;28;20028;-82
2021/01/21 17:44:30;;;;;;;5.50;3.45;;;;;;;;;;5068327;28;20025;-83
2021/01/21 17:46:55;;;;;;;4.70;2.83;;;;;;;;;;5072033;28;20287;-83
2021/01/21 17:49:22;;;;;;;3.55;1.75;;;;;;;;;;5065751;28;20099;-83
2021/01/21 17:51:48;;;;;;;4.28;2.97;;;;;;;;;;5068259;28;20574;-81
2021/01/21 17:54:14;;;;;;;6.45;4.55;;;;;;;;;;5085470;28;20020;-84
2021/01/21 17:56:39;;;;;;;16.05;9.75;;;;;;;;;;5067921;28;20036;-83
2021/01/21 17:59:05;;;;;;;4.22;2.47;;;;;;;;;;5084438;28;20133;-82
2021/01/21 18:01:31;;;;;;;4.57;2.08;;;;;;;;;;5068682;28;20103;-81
2021/01/21 18:03:56;;;;;;;6.53;3.35;;;;;;;;;;5069871;28;20034;-83
2021/01/21 18:06:22;;;;;;;5.20;3.13;;;;;;;;;;5065038;28;20102;-83
2021/01/21 18:08:48;;;;;;;4.47;2.50;;;;;;;;;;5069974;28;20032;-83
2021/01/21 18:11:14;;;;;;;4.40;2.15;;;;;;;;;;5071887;28;20056;-83
2021/01/21 18:13:39;;;;;;;4.20;2.50;;;;;;;;;;5088651;28;20032;-83
2021/01/21 18:16:05;;;;;;;4.95;2.60;;;;;;;;;;5071462;28;20115;-82
2021/01/21 18:18:31;;;;;;;3.33;2.28;;;;;;;;;;5065571;28;20116;-82
2021/01/21 18:20:57;;;;;;;4.68;2.58;;;;;;;;;;5070818;28;20048;-83
2021/01/21 18:23:23;;;;;;;2.83;1.20;;;;;;;;;;5082673;28;20402;-83
2021/01/21 18:25:49;;;;;;;3.60;1.92;;;;;;;;;;5070374;28;20052;-82
2021/01/21 18:28:14;;;;;;;4.88;2.15;;;;;;;;;;5086668;28;20023;-83
2021/01/21 18:30:40;;;;;;;3.97;2.22;;;;;;;;;;5071787;28;20056;-81
2021/01/21 18:33:06;;;;;;;6.95;3.35;;;;;;;;;;5071084;28;20055;-78
2021/01/21 18:35:32;;;;;;;5.20;3.33;;;;;;;;;;5072916;28;20035;-81
2021/01/21 18:37:57;;;;;;;4.78;3.08;;;;;;;;;;5071683;28;20024;-80
2021/01/21 18:40:39;;;;;;;7.93;1.75;;;;;;;;;;5069707;28;19916;-81
2021/01/21 18:43:05;;;;;;;5.95;2.38;;;;;;;;;;5020323;28;20038;-81
2021/01/21 18:49:12;;;;;;;5.55;2.85;;;;;;;;;;5085880;28;20035;-81
2021/01/21 18:51:38;;;;;;;4.63;2.47;;;;;;;;;;5046295;28;20032;-81
2021/01/21 18:57:49;;;;;;;5.50;3.50;;;;;;;;;;5068297;28;20079;-82
2021/01/21 19:00:36;;;;;;;19.15;9.50;;;;;;;;;;5057526;28;20056;-80
2021/01/21 19:03:05;;;;;;;9.02;4.95;;;;;;;;;;5061515;28;20033;-82
2021/01/21 19:05:31;;;;;;;8.55;4.80;;;;;;;;;;5013875;28;20034;-82
2021/01/21 19:07:57;;;;;;;5.80;3.08;;;;;;;;;;5044582;28;20032;-82
2021/01/21 19:10:23;;;;;;;9.90;5.78;;;;;;;;;;5046418;28;20024;-82
2021/01/21 19:12:48;;;;;;;5.60;3.30;;;;;;;;;;5065572;28;20029;-82
2021/01/21 19:17:32;;;;;;;17.05;7.93;;;;;;;;;;5128956;27;20358;-83
2021/01/21 19:19:59;;;;;;;27.92;12.93;;;;;;;;;;5129970;28;20031;-83
2021/01/21 19:22:25;;;;;;;26.50;11.82;;;;;;;;;;5121508;28;19912;-82
2021/01/21 19:24:51;;;;;;;25.98;10.13;;;;;;;;;;5107404;28;20106;-82
2021/01/21 19:27:17;;;;;;;5.45;2.60;;;;;;;;;;5110932;28;20042;-82
2021/01/21 19:29:43;;;;;;;14.10;6.40;;;;;;;;;;5108209;28;20040;-83
2021/01/21 19:32:12;;;;;;;14.55;7.20;;;;;;;;;;5112572;28;20037;-83
2021/01/21 19:34:38;;;;;;;11.45;6.70;;;;;;;;;;5112048;28;20059;-83
2021/01/21 19:37:04;;;;;;;8.18;4.82;;;;;;;;;;5109823;28;20034;-83
2021/01/21 19:39:30;;;;;;;8.38;4.85;;;;;;;;;;5110723;28;20032;-82
2021/01/21 19:41:55;;;;;;;9.02;3.92;;;;;;;;;;5109015;28;20016;-83
2021/01/21 19:44:21;;;;;;;4.68;2.65;;;;;;;;;;5108348;28;20024;-83
2021/01/21 19:46:48;;;;;;;6.43;3.05;;;;;;;;;;5113561;28;20031;-83
2021/01/21 19:49:14;;;;;;;4.85;2.95;;;;;;;;;;5103044;28;20028;-82
2021/01/21 19:51:39;;;;;;;5.35;2.78;;;;;;;;;;5111505;28;20040;-83
2021/01/21 19:54:05;;;;;;;4.63;2.25;;;;;;;;;;5108445;28;20028;-83
2021/01/21 19:56:31;;;;;;;5.93;2.50;;;;;;;;;;5104375;28;20057;-83
2021/01/21 19:58:56;;;;;;;8.07;3.80;;;;;;;;;;5110972;28;20028;-83
2021/01/21 20:03:41;;;;;;;10.57;4.15;;;;;;;;;;5136350;27;20395;-83
2021/01/21 20:06:14;;;;;;;5.93;2.83;;;;;;;;;;5125816;27;20026;-82
2021/01/21 20:08:40;;;;;;;5.20;2.80;;;;;;;;;;5115798;27;20472;-83
2021/01/21 20:11:06;;;;;;;6.25;4.25;;;;;;;;;;5127805;27;20026;-83
2021/01/21 20:13:31;;;;;;;11.07;4.90;;;;;;;;;;5117629;27;20061;-83
2021/01/21 20:15:57;;;;;;;5.55;2.50;;;;;;;;;;5120591;27;20066;-82
2021/01/21 20:18:22;;;;;;;6.35;2.97;;;;;;;;;;5112395;28;20028;-82
2021/01/21 20:20:48;;;;;;;3.67;2.00;;;;;;;;;;5119676;27;20046;-82
2021/01/21 20:23:14;;;;;;;7.22;2.67;;;;;;;;;;5119865;27;20030;-81
2021/01/21 20:25:40;;;;;;;4.10;2.33;;;;;;;;;;5141356;27;20475;-83
2021/01/21 20:28:05;;;;;;;6.63;3.50;;;;;;;;;;5112732;27;20110;-83
2021/01/21 20:30:31;;;;;;;11.90;5.03;;;;;;;;;;5121121;27;20036;-82
2021/01/21 20:32:57;;;;;;;9.18;4.95;;;;;;;;;;5130176;27;20375;-83
2021/01/21 20:35:22;;;;;;;5.22;2.38;;;;;;;;;;5146535;27;20027;-83
2021/01/21 20:37:48;;;;;;;6.80;3.70;;;;;;;;;;5110896;27;20024;-83
2021/01/21 20:40:14;;;;;;;8.13;3.40;;;;;;;;;;5106986;28;20038;-82
2021/01/21 20:42:40;;;;;;;5.70;3.28;;;;;;;;;;5132354;27;20421;-82
2021/01/21 20:45:06;;;;;;;4.55;2.45;;;;;;;;;;5119568;28;20075;-81
2021/01/21 20:47:32;;;;;;;4.55;2.40;;;;;;;;;;5110467;27;20110;-83
2021/01/21 20:49:58;;;;;;;4.32;2.50;;;;;;;;;;5115971;27;20106;-82
2021/01/21 20:52:23;;;;;;;4.30;2.40;;;;;;;;;;5106305;28;20024;-83
2021/01/21 20:54:49;;;;;;;4.60;2.20;;;;;;;;;;5111593;27;20153;-83
2021/01/21 20:57:15;;;;;;;3.85;2.00;;;;;;;;;;5112256;28;20062;-83
2021/01/21 20:59:40;;;;;;;4.70;1.83;;;;;;;;;;5132847;27;20600;-83